createdAt,value
2023-01-21T00:00:18.983Z,97839.31
2023-01-21T00:05:22.166Z,97835.25
2023-01-21T00:10:25.348Z,97831.50
2023-01-21T00:15:28.654Z,97827.88
2023-01-21T00:20:32.158Z,97839.47
2023-01-21T00:25:35.407Z,97828.94
2023-01-21T00:30:38.498Z,97831.78
2023-01-21T00:35:41.531Z,97833.06
2023-01-21T00:40:44.978Z,97834.28
2023-01-21T00:45:48.668Z,97830.69
2023-01-21T00:50:51.978Z,97828.81
2023-01-21T00:55:59.929Z,97828.09
2023-01-21T01:01:09.701Z,97828.09
2023-01-21T01:06:26.318Z,97834.53
2023-01-21T01:11:41.057Z,97825.91
2023-01-21T01:16:44.317Z,97814.06
2023-01-21T01:21:47.707Z,97820.38
2023-01-21T01:26:58.657Z,97812.84
2023-01-21T01:32:17.437Z,97812.34
2023-01-21T01:37:20.453Z,97815.28
2023-01-21T01:42:23.591Z,97814.22
2023-01-21T01:47:41.518Z,97810.56
2023-01-21T01:52:45.552Z,97807.16
2023-01-21T01:57:52.753Z,97796.13
2023-01-21T02:02:56.851Z,97800.25
2023-01-21T02:08:01.188Z,97795.91
2023-01-21T02:13:12.487Z,97798.28
2023-01-21T02:18:46.178Z,97799.59
2023-01-21T02:24:22.898Z,97801.22
2023-01-21T02:29:47.718Z,97801.69
2023-01-21T02:34:53.666Z,97802.50
2023-01-21T02:40:11.504Z,97800.31
2023-01-21T02:45:42.146Z,97802.75
2023-01-21T02:50:49.402Z,97814.56
2023-01-21T02:55:53.702Z,97815.88
2023-01-21T03:01:34.361Z,97817.75
2023-01-21T03:06:50.653Z,97818.00
2023-01-21T03:12:15.928Z,97817.16
2023-01-21T03:17:46.640Z,97819.75
2023-01-21T03:22:56.840Z,97817.56
2023-01-21T03:28:05.178Z,97810.88
2023-01-21T03:33:11.404Z,97817.34
2023-01-21T03:38:29.581Z,97814.88
2023-01-21T03:43:33.063Z,97819.94
2023-01-21T03:48:55.042Z,97816.09
2023-01-21T03:54:00.373Z,97827.31
2023-01-21T03:59:03.675Z,97839.50
2023-01-21T04:04:06.952Z,97844.88
2023-01-21T04:09:10.179Z,97847.94
2023-01-21T04:14:13.089Z,97856.66
2023-01-21T04:19:15.978Z,97856.56
2023-01-21T04:24:19.218Z,97853.28
2023-01-21T04:29:22.467Z,97856.00
2023-01-21T04:34:25.629Z,97878.38
2023-01-21T04:39:28.739Z,97885.38
2023-01-21T04:44:31.929Z,97893.41
2023-01-21T04:49:34.845Z,97898.59
2023-01-21T04:54:37.951Z,97899.97
2023-01-21T04:59:41.196Z,97897.47
2023-01-21T05:04:44.271Z,97913.44
2023-01-21T05:09:47.574Z,97905.91
2023-01-21T05:14:54.670Z,97913.47
2023-01-21T05:19:59.405Z,97928.59
2023-01-21T05:25:02.715Z,97924.50
2023-01-21T05:30:07.009Z,97930.03
2023-01-21T05:35:10.763Z,97926.06
2023-01-21T05:40:18.338Z,97928.50
2023-01-21T05:45:21.850Z,97931.56
2023-01-21T05:50:24.838Z,97936.25
2023-01-21T05:55:28.073Z,97941.56
2023-01-21T06:00:31.557Z,97942.28
2023-01-21T06:05:37.426Z,97949.44
2023-01-21T06:10:41.126Z,97962.06
2023-01-21T06:15:44.385Z,97959.72
2023-01-21T06:20:48.077Z,97969.66
2023-01-21T06:26:03.413Z,97973.94
2023-01-21T06:31:22.227Z,97973.38
2023-01-21T06:36:25.682Z,97985.78
2023-01-21T06:41:28.636Z,97989.72
2023-01-21T06:46:31.869Z,97999.91
2023-01-21T06:51:35.916Z,97994.88
2023-01-21T06:56:38.960Z,98009.97
2023-01-21T07:01:41.954Z,98011.22
2023-01-21T07:06:55.017Z,98014.97
2023-01-21T07:12:15.929Z,98012.44
2023-01-21T07:17:19.021Z,98000.38
2023-01-21T07:22:22.156Z,98021.78
2023-01-21T07:27:25.267Z,98024.81
2023-01-21T07:32:28.543Z,98024.69
2023-01-21T07:37:31.606Z,98019.63
2023-01-21T07:42:34.747Z,98017.88
2023-01-21T07:47:38.256Z,98018.53
2023-01-21T07:52:42.437Z,98025.47
2023-01-21T07:57:45.312Z,98021.88
2023-01-21T08:02:51.346Z,98015.31
2023-01-21T08:07:57.746Z,98012.81
2023-01-21T08:13:01.111Z,98011.38
2023-01-21T08:18:14.845Z,98014.47
2023-01-21T08:23:33.658Z,98012.94
2023-01-21T08:28:36.940Z,98013.88
2023-01-21T08:33:41.505Z,98002.94
2023-01-21T08:39:01.302Z,98001.97
2023-01-21T08:44:20.488Z,98002.38
2023-01-21T08:49:23.456Z,97992.25
2023-01-21T08:54:27.013Z,97992.91
2023-01-21T08:59:30.252Z,97978.94
2023-01-21T09:04:33.417Z,97973.63
2023-01-21T09:09:36.699Z,97970.50
2023-01-21T09:14:41.360Z,97967.13
2023-01-21T09:19:44.720Z,97956.66
2023-01-21T09:24:48.325Z,97962.44
2023-01-21T09:29:51.696Z,97940.63
2023-01-21T09:35:04.821Z,97937.16
2023-01-21T09:40:26.836Z,97925.72
2023-01-21T09:45:31.224Z,97913.97
2023-01-21T09:50:38.423Z,97924.28
2023-01-21T09:55:46.339Z,97917.53
2023-01-21T10:00:57.017Z,97913.72
2023-01-21T10:06:44.076Z,97912.84
2023-01-21T10:12:28.004Z,97907.84
2023-01-21T10:17:53.088Z,97878.59
2023-01-21T10:23:11.678Z,97873.81
2023-01-21T10:28:31.380Z,97865.53
2023-01-21T10:33:35.828Z,97856.38
2023-01-21T10:38:52.002Z,97856.44
2023-01-21T10:44:04.164Z,97853.16
2023-01-21T10:49:48.939Z,97848.81
2023-01-21T10:55:16.543Z,97848.00
2023-01-21T11:00:36.956Z,97843.63
2023-01-21T11:06:00.046Z,97843.34
2023-01-21T11:11:05.955Z,97848.28
2023-01-21T11:16:38.005Z,97843.69
2023-01-21T11:21:58.060Z,97829.38
2023-01-21T11:27:01.956Z,97830.44
2023-01-21T11:32:21.978Z,97836.88
2023-01-21T11:37:28.220Z,97835.44
2023-01-21T11:42:32.606Z,97841.34
2023-01-21T11:47:50.197Z,97837.03
2023-01-21T11:53:08.609Z,97839.41
2023-01-21T11:58:22.919Z,97834.19
2023-01-21T12:03:38.750Z,97839.50
2023-01-21T12:08:42.266Z,97845.72
2023-01-21T12:14:05.493Z,97843.75
2023-01-21T12:19:33.110Z,97841.31
2023-01-21T12:25:25.676Z,97841.31
2023-01-21T12:31:03.196Z,97837.78
2023-01-21T12:36:19.701Z,97842.88
2023-01-21T12:41:33.567Z,97852.00
2023-01-21T12:46:42.572Z,97857.91
2023-01-21T12:51:54.747Z,97846.19
2023-01-21T12:57:06.781Z,97858.06
2023-01-21T13:02:33.573Z,97853.41
2023-01-21T13:07:51.753Z,97852.31
2023-01-21T13:13:22.833Z,97847.75
2023-01-21T13:18:38.049Z,97854.28
2023-01-21T13:23:51.764Z,97863.44
2023-01-21T13:29:02.108Z,97865.34
2023-01-21T13:34:34.155Z,97866.97
2023-01-21T13:39:44.332Z,97878.00
2023-01-21T13:45:14.497Z,97866.06
2023-01-21T13:50:48.985Z,97874.81
2023-01-21T13:56:19.936Z,97873.91
2023-01-21T14:01:39.715Z,97871.28
2023-01-21T14:07:02.645Z,97886.06
2023-01-21T14:12:12.621Z,97887.63
2023-01-21T14:17:27.502Z,97894.53
2023-01-21T14:22:49.838Z,97890.03
2023-01-21T14:28:10.394Z,97885.03
2023-01-21T14:33:17.871Z,97898.41
2023-01-21T14:38:33.863Z,97895.31
2023-01-21T14:43:37.104Z,97904.81
2023-01-21T14:48:42.101Z,97898.44
2023-01-21T14:53:59.971Z,97900.06
2023-01-21T14:59:29.981Z,97900.78
2023-01-21T15:05:17.171Z,97905.63
2023-01-21T15:10:26.885Z,97896.41
2023-01-21T15:15:35.465Z,97898.88
2023-01-21T15:20:51.288Z,97901.81
2023-01-21T15:26:30.045Z,97899.13
2023-01-21T15:31:45.090Z,97906.34
2023-01-21T15:36:51.485Z,97907.97
2023-01-21T15:42:13.251Z,97908.31
2023-01-21T15:47:28.924Z,97915.31
2023-01-21T15:52:32.354Z,97911.47
2023-01-21T15:57:44.604Z,97912.47
2023-01-21T16:03:27.759Z,97922.41
2023-01-21T16:08:40.591Z,97929.88
2023-01-21T16:14:00.499Z,97928.00
2023-01-21T16:19:09.881Z,97929.06
2023-01-21T16:24:17.947Z,97935.00
2023-01-21T16:29:22.026Z,97935.25
2023-01-21T16:34:41.789Z,97929.88
2023-01-21T16:39:45.692Z,97937.94
2023-01-21T16:44:49.113Z,97936.53
2023-01-21T16:49:52.925Z,97932.81
2023-01-21T16:54:56.472Z,97933.63
2023-01-21T16:59:59.973Z,97942.00
2023-01-21T17:05:03.903Z,97943.88
2023-01-21T17:10:17.684Z,97938.34
2023-01-21T17:15:43.722Z,97936.47
2023-01-21T17:21:22.160Z,97936.22
2023-01-21T17:26:47.537Z,97936.47
2023-01-21T17:32:03.615Z,97938.50
2023-01-21T17:37:43.985Z,97937.94
2023-01-21T17:42:47.282Z,97939.00
2023-01-21T17:48:08.030Z,97946.47
2023-01-21T17:53:28.457Z,97944.81
2023-01-21T17:58:31.667Z,97955.56
2023-01-21T18:03:35.051Z,97955.78
2023-01-21T18:08:38.227Z,97957.06
2023-01-21T18:13:41.370Z,97947.97
2023-01-21T18:18:44.774Z,97949.03
2023-01-21T18:23:49.789Z,97958.13
2023-01-21T18:29:05.348Z,97953.78
2023-01-21T18:34:30.218Z,97955.66
2023-01-21T18:39:33.404Z,97951.31
2023-01-21T18:44:36.520Z,97955.31
2023-01-21T18:49:39.831Z,97959.84
2023-01-21T18:54:55.800Z,97959.25
2023-01-21T19:00:28.251Z,97960.53
2023-01-21T19:05:35.837Z,97956.22
2023-01-21T19:10:39.438Z,97955.84
2023-01-21T19:15:43.051Z,97955.59
2023-01-21T19:20:58.864Z,97956.06
2023-01-21T19:26:21.853Z,97950.94
2023-01-21T19:31:25.419Z,97956.31
2023-01-21T19:36:28.756Z,97962.72
2023-01-21T19:41:33.148Z,97957.38
2023-01-21T19:46:36.555Z,97956.53
2023-01-21T19:51:39.992Z,97954.06
2023-01-21T19:56:43.403Z,97958.63
2023-01-21T20:01:46.729Z,97957.81
2023-01-21T20:06:50.335Z,97967.72
2023-01-21T20:11:53.700Z,97966.91
2023-01-21T20:16:56.759Z,97980.78
2023-01-21T20:22:13.215Z,97979.38
2023-01-21T20:27:33.556Z,97977.81
2023-01-21T20:32:36.786Z,97983.03
2023-01-21T20:37:39.853Z,97979.78
2023-01-21T20:42:43.087Z,97975.66
2023-01-21T20:47:52.948Z,97967.16
2023-01-21T20:52:56.201Z,97966.13
2023-01-21T20:57:59.588Z,97966.34
2023-01-21T21:03:02.975Z,97957.50
2023-01-21T21:08:06.244Z,97953.59
2023-01-21T21:13:09.350Z,97951.34
2023-01-21T21:18:13.514Z,97949.13
2023-01-21T21:23:16.693Z,97953.69
2023-01-21T21:28:20.311Z,97951.81
2023-01-21T21:33:24.399Z,97954.50
2023-01-21T21:38:27.659Z,97950.63
2023-01-21T21:43:30.912Z,97958.69
2023-01-21T21:48:34.344Z,97958.31
2023-01-21T21:53:39.260Z,97959.81
2023-01-21T21:58:43.942Z,97955.09
2023-01-21T22:03:56.551Z,97953.13
2023-01-21T22:09:17.006Z,97938.72
2023-01-21T22:14:20.023Z,97925.56
2023-01-21T22:19:23.282Z,97930.03
2023-01-21T22:24:26.301Z,97933.28
2023-01-21T22:29:29.889Z,97921.03
2023-01-21T22:34:33.862Z,97924.34
2023-01-21T22:39:38.635Z,97925.97
2023-01-21T22:44:41.779Z,97930.75
2023-01-21T22:49:44.969Z,97943.56
2023-01-21T22:54:49.573Z,97940.97
2023-01-21T22:59:53.181Z,97948.66
2023-01-21T23:04:56.515Z,97945.81
2023-01-21T23:10:00.115Z,97947.28
2023-01-21T23:15:03.486Z,97948.81
2023-01-21T23:20:06.973Z,97952.56
2023-01-21T23:25:13.384Z,97964.00
2023-01-21T23:30:25.555Z,97964.19
2023-01-21T23:35:42.586Z,97964.41
2023-01-21T23:40:47.522Z,97977.59
2023-01-21T23:45:50.462Z,97976.78
2023-01-21T23:50:53.514Z,97970.16
2023-01-21T23:56:08.044Z,97970.75
